sensor_id;sensor_type;location;lat;lon;timestamp;pressure;altitude;pressure_sealevel;temperature;humidity
75006;BME280;63553;51.814;4.600;2022-11-18T00:02:02;99560.19;;;7.76;87.16
75006;BME280;63553;51.814;4.600;2022-11-18T00:04:28;99558.34;;;7.89;86.74
75006;BME280;63553;51.814;4.600;2022-11-18T00:06:53;99560.13;;;7.85;86.77
75006;BME280;63553;51.814;4.600;2022-11-18T00:09:18;99560.59;;;7.87;86.95
75006;BME280;63553;51.814;4.600;2022-11-18T00:11:44;99564.13;;;7.96;86.43
75006;BME280;63553;51.814;4.600;2022-11-18T00:14:28;99575.94;;;8.05;86.63
75006;BME280;63553;51.814;4.600;2022-11-18T00:16:58;99574.13;;;8.09;86.68
75006;BME280;63553;51.814;4.600;2022-11-18T00:19:36;99577.00;;;8.21;86.24
75006;BME280;63553;51.814;4.600;2022-11-18T00:22:04;99579.63;;;8.18;86.40
75006;BME280;63553;51.814;4.600;2022-11-18T00:24:29;99582.50;;;8.01;87.46
75006;BME280;63553;51.814;4.600;2022-11-18T00:26:55;99588.97;;;8.05;86.79
75006;BME280;63553;51.814;4.600;2022-11-18T00:29:20;99594.47;;;8.13;86.95
75006;BME280;63553;51.814;4.600;2022-11-18T00:31:46;99601.69;;;8.06;86.63
75006;BME280;63553;51.814;4.600;2022-11-18T00:34:14;99601.91;;;8.21;86.67
75006;BME280;63553;51.814;4.600;2022-11-18T00:36:40;99597.50;;;8.20;86.64
75006;BME280;63553;51.814;4.600;2022-11-18T00:39:06;99600.72;;;8.02;86.87
75006;BME280;63553;51.814;4.600;2022-11-18T00:41:31;99587.13;;;7.88;87.39
75006;BME280;63553;51.814;4.600;2022-11-18T00:44:15;99612.16;;;8.21;86.59
75006;BME280;63553;51.814;4.600;2022-11-18T00:46:41;99603.56;;;8.14;86.81
75006;BME280;63553;51.814;4.600;2022-11-18T00:49:07;99610.69;;;8.23;86.85
75006;BME280;63553;51.814;4.600;2022-11-18T00:51:32;99618.47;;;8.30;86.97
75006;BME280;63553;51.814;4.600;2022-11-18T00:53:58;99626.28;;;8.07;86.86
75006;BME280;63553;51.814;4.600;2022-11-18T00:56:23;99623.81;;;8.35;86.50
75006;BME280;63553;51.814;4.600;2022-11-18T00:58:48;99627.63;;;8.01;87.54
75006;BME280;63553;51.814;4.600;2022-11-18T01:01:14;99633.53;;;7.91;87.60
75006;BME280;63553;51.814;4.600;2022-11-18T01:03:39;99637.56;;;7.94;87.84
75006;BME280;63553;51.814;4.600;2022-11-18T01:06:04;99634.94;;;7.97;88.08
75006;BME280;63553;51.814;4.600;2022-11-18T01:08:30;99638.53;;;7.98;87.90
75006;BME280;63553;51.814;4.600;2022-11-18T01:10:55;99643.16;;;7.85;88.17
75006;BME280;63553;51.814;4.600;2022-11-18T01:13:40;99640.72;;;8.13;87.72
75006;BME280;63553;51.814;4.600;2022-11-18T01:16:06;99655.97;;;7.98;87.91
75006;BME280;63553;51.814;4.600;2022-11-18T01:18:31;99655.34;;;7.84;88.20
75006;BME280;63553;51.814;4.600;2022-11-18T01:21:01;99652.53;;;8.01;88.33
75006;BME280;63553;51.814;4.600;2022-11-18T01:23:27;99659.66;;;8.02;87.69
75006;BME280;63553;51.814;4.600;2022-11-18T01:25:54;99655.00;;;7.94;87.88
75006;BME280;63553;51.814;4.600;2022-11-18T01:28:19;99660.88;;;7.84;88.69
75006;BME280;63553;51.814;4.600;2022-11-18T01:30:45;99656.06;;;8.02;88.71
75006;BME280;63553;51.814;4.600;2022-11-18T01:33:11;99658.63;;;8.15;87.96
75006;BME280;63553;51.814;4.600;2022-11-18T01:35:41;99672.38;;;8.03;87.94
75006;BME280;63553;51.814;4.600;2022-11-18T01:38:09;99669.25;;;8.05;87.77
75006;BME280;63553;51.814;4.600;2022-11-18T01:40:36;99673.78;;;8.09;87.36
75006;BME280;63553;51.814;4.600;2022-11-18T01:43:01;99679.00;;;8.11;87.86
75006;BME280;63553;51.814;4.600;2022-11-18T01:45:37;99670.66;;;8.19;87.35
75006;BME280;63553;51.814;4.600;2022-11-18T01:48:07;99688.97;;;8.03;88.39
75006;BME280;63553;51.814;4.600;2022-11-18T01:50:36;99691.06;;;8.06;88.53
75006;BME280;63553;51.814;4.600;2022-11-18T01:53:08;99682.66;;;7.94;88.51
75006;BME280;63553;51.814;4.600;2022-11-18T01:55:40;99695.53;;;7.99;88.12
75006;BME280;63553;51.814;4.600;2022-11-18T01:58:22;99697.38;;;8.15;88.12
75006;BME280;63553;51.814;4.600;2022-11-18T02:00:49;99696.19;;;7.87;88.55
75006;BME280;63553;51.814;4.600;2022-11-18T02:03:15;99705.16;;;7.93;89.01
75006;BME280;63553;51.814;4.600;2022-11-18T02:05:43;99702.41;;;7.84;89.11
75006;BME280;63553;51.814;4.600;2022-11-18T02:08:11;99702.47;;;7.67;89.65
75006;BME280;63553;51.814;4.600;2022-11-18T02:10:37;99705.53;;;7.74;89.67
75006;BME280;63553;51.814;4.600;2022-11-18T02:13:02;99700.56;;;7.59;90.05
75006;BME280;63553;51.814;4.600;2022-11-18T02:15:48;99707.06;;;7.54;90.33
75006;BME280;63553;51.814;4.600;2022-11-18T02:20:54;99722.81;;;7.71;90.33
75006;BME280;63553;51.814;4.600;2022-11-18T02:29:10;99735.25;;;7.48;90.19
75006;BME280;63553;51.814;4.600;2022-11-18T02:31:56;99742.25;;;7.45;90.94
75006;BME280;63553;51.814;4.600;2022-11-18T02:34:32;99734.72;;;7.46;91.12
75006;BME280;63553;51.814;4.600;2022-11-18T02:37:08;99743.53;;;7.31;91.48
75006;BME280;63553;51.814;4.600;2022-11-18T02:39:44;99737.22;;;7.30;91.65
75006;BME280;63553;51.814;4.600;2022-11-18T02:42:14;99745.34;;;7.26;91.26
75006;BME280;63553;51.814;4.600;2022-11-18T02:44:44;99742.09;;;7.16;91.46
75006;BME280;63553;51.814;4.600;2022-11-18T02:47:12;99749.09;;;7.22;91.48
75006;BME280;63553;51.814;4.600;2022-11-18T02:49:46;99753.47;;;7.32;91.23
75006;BME280;63553;51.814;4.600;2022-11-18T02:52:13;99753.16;;;7.16;91.16
75006;BME280;63553;51.814;4.600;2022-11-18T02:54:42;99747.63;;;7.24;91.27
75006;BME280;63553;51.814;4.600;2022-11-18T02:57:10;99752.34;;;7.33;91.07
75006;BME280;63553;51.814;4.600;2022-11-18T02:59:37;99748.56;;;7.46;90.63
75006;BME280;63553;51.814;4.600;2022-11-18T03:02:02;99749.75;;;7.36;90.54
75006;BME280;63553;51.814;4.600;2022-11-18T03:04:28;99755.75;;;7.30;90.93
75006;BME280;63553;51.814;4.600;2022-11-18T03:07:21;99753.81;;;7.21;91.03
75006;BME280;63553;51.814;4.600;2022-11-18T03:09:50;99757.38;;;7.05;91.21
75006;BME280;63553;51.814;4.600;2022-11-18T03:12:22;99764.22;;;7.16;91.09
75006;BME280;63553;51.814;4.600;2022-11-18T03:17:57;99774.78;;;6.97;91.64
75006;BME280;63553;51.814;4.600;2022-11-18T03:20:29;99769.25;;;7.31;91.48
75006;BME280;63553;51.814;4.600;2022-11-18T03:23:11;99767.97;;;7.11;91.17
75006;BME280;63553;51.814;4.600;2022-11-18T03:26:20;99768.59;;;7.25;91.63
75006;BME280;63553;51.814;4.600;2022-11-18T03:28:59;99775.44;;;7.19;90.83
75006;BME280;63553;51.814;4.600;2022-11-18T03:31:35;99779.03;;;7.03;91.48
75006;BME280;63553;51.814;4.600;2022-11-18T03:34:06;99781.44;;;7.04;91.54
75006;BME280;63553;51.814;4.600;2022-11-18T03:36:39;99771.53;;;7.12;91.29
75006;BME280;63553;51.814;4.600;2022-11-18T03:39:09;99777.03;;;6.86;91.69
75006;BME280;63553;51.814;4.600;2022-11-18T03:42:03;99781.63;;;6.99;91.84
75006;BME280;63553;51.814;4.600;2022-11-18T03:44:29;99785.38;;;7.03;91.35
75006;BME280;63553;51.814;4.600;2022-11-18T03:47:03;99788.13;;;6.95;91.91
75006;BME280;63553;51.814;4.600;2022-11-18T03:49:39;99785.50;;;6.98;92.14
75006;BME280;63553;51.814;4.600;2022-11-18T03:52:10;99792.50;;;7.04;90.97
75006;BME280;63553;51.814;4.600;2022-11-18T03:54:39;99796.06;;;7.05;91.12
75006;BME280;63553;51.814;4.600;2022-11-18T03:57:11;99808.91;;;6.92;91.58
75006;BME280;63553;51.814;4.600;2022-11-18T03:59:43;99811.19;;;6.99;91.22
75006;BME280;63553;51.814;4.600;2022-11-18T04:02:10;99806.47;;;6.91;91.75
75006;BME280;63553;51.814;4.600;2022-11-18T04:04:38;99818.53;;;6.95;91.55
75006;BME280;63553;51.814;4.600;2022-11-18T04:07:33;99812.00;;;6.99;91.73
75006;BME280;63553;51.814;4.600;2022-11-18T04:10:06;99819.47;;;6.90;91.59
75006;BME280;63553;51.814;4.600;2022-11-18T04:12:37;99824.34;;;6.85;92.00
75006;BME280;63553;51.814;4.600;2022-11-18T04:15:05;99829.88;;;6.85;91.80
75006;BME280;63553;51.814;4.600;2022-11-18T04:17:30;99836.22;;;6.94;91.82
75006;BME280;63553;51.814;4.600;2022-11-18T04:19:56;99830.88;;;6.89;91.80
75006;BME280;63553;51.814;4.600;2022-11-18T04:22:21;99839.94;;;6.89;92.33
75006;BME280;63553;51.814;4.600;2022-11-18T04:24:47;99848.09;;;6.94;91.72
75006;BME280;63553;51.814;4.600;2022-11-18T04:27:12;99844.69;;;6.89;91.84
75006;BME280;63553;51.814;4.600;2022-11-18T04:29:38;99845.44;;;6.72;91.84
75006;BME280;63553;51.814;4.600;2022-11-18T04:32:04;99852.16;;;6.88;92.03
75006;BME280;63553;51.814;4.600;2022-11-18T04:34:29;99852.63;;;6.90;91.84
75006;BME280;63553;51.814;4.600;2022-11-18T04:36:55;99849.06;;;6.90;92.10
75006;BME280;63553;51.814;4.600;2022-11-18T04:39:21;99849.88;;;6.90;91.59
75006;BME280;63553;51.814;4.600;2022-11-18T04:41:46;99854.13;;;7.05;91.36
75006;BME280;63553;51.814;4.600;2022-11-18T04:44:28;99868.09;;;7.00;91.46
75006;BME280;63553;51.814;4.600;2022-11-18T04:46:56;99868.59;;;7.10;91.21
75006;BME280;63553;51.814;4.600;2022-11-18T04:49:22;99871.88;;;7.30;90.38
75006;BME280;63553;51.814;4.600;2022-11-18T04:51:48;99866.34;;;7.30;90.29
75006;BME280;63553;51.814;4.600;2022-11-18T04:54:14;99878.88;;;7.44;90.11
75006;BME280;63553;51.814;4.600;2022-11-18T04:56:41;99881.00;;;7.21;90.77
75006;BME280;63553;51.814;4.600;2022-11-18T04:59:06;99887.31;;;7.22;90.39
75006;BME280;63553;51.814;4.600;2022-11-18T05:01:32;99885.38;;;7.31;90.23
75006;BME280;63553;51.814;4.600;2022-11-18T05:04:02;99888.59;;;7.24;89.78
75006;BME280;63553;51.814;4.600;2022-11-18T05:06:27;99881.78;;;7.31;89.94
75006;BME280;63553;51.814;4.600;2022-11-18T05:08:53;99895.47;;;7.36;89.78
75006;BME280;63553;51.814;4.600;2022-11-18T05:11:19;99886.81;;;7.20;89.95
75006;BME280;63553;51.814;4.600;2022-11-18T05:14:03;99892.53;;;7.15;90.71
75006;BME280;63553;51.814;4.600;2022-11-18T05:16:28;99888.09;;;7.05;90.89
75006;BME280;63553;51.814;4.600;2022-11-18T05:18:53;99894.56;;;7.01;91.06
75006;BME280;63553;51.814;4.600;2022-11-18T05:21:19;99898.34;;;7.05;90.80
75006;BME280;63553;51.814;4.600;2022-11-18T05:23:44;99903.22;;;6.99;91.01
75006;BME280;63553;51.814;4.600;2022-11-18T05:26:10;99914.91;;;7.05;90.49
75006;BME280;63553;51.814;4.600;2022-11-18T05:28:36;99911.34;;;7.13;90.42
75006;BME280;63553;51.814;4.600;2022-11-18T05:31:09;99912.16;;;7.13;90.89
75006;BME280;63553;51.814;4.600;2022-11-18T05:33:34;99918.03;;;7.12;90.43
75006;BME280;63553;51.814;4.600;2022-11-18T05:36:08;99923.09;;;7.18;89.73
75006;BME280;63553;51.814;4.600;2022-11-18T05:38:34;99916.69;;;7.01;90.89
75006;BME280;63553;51.814;4.600;2022-11-18T05:41:00;99922.72;;;7.03;90.59
75006;BME280;63553;51.814;4.600;2022-11-18T05:43:26;99924.19;;;7.00;90.71
75006;BME280;63553;51.814;4.600;2022-11-18T05:45:51;99935.56;;;7.07;90.71
75006;BME280;63553;51.814;4.600;2022-11-18T05:48:17;99928.72;;;6.96;90.47
75006;BME280;63553;51.814;4.600;2022-11-18T05:50:45;99934.41;;;7.00;90.31
75006;BME280;63553;51.814;4.600;2022-11-18T05:53:11;99936.03;;;7.01;90.88
75006;BME280;63553;51.814;4.600;2022-11-18T05:58:20;99950.69;;;7.10;90.27
75006;BME280;63553;51.814;4.600;2022-11-18T06:00:47;99948.84;;;6.88;90.76
75006;BME280;63553;51.814;4.600;2022-11-18T06:03:20;99949.06;;;7.00;90.88
75006;BME280;63553;51.814;4.600;2022-11-18T06:05:47;99948.41;;;7.03;90.51
75006;BME280;63553;51.814;4.600;2022-11-18T06:08:14;99953.09;;;6.94;90.47
75006;BME280;63553;51.814;4.600;2022-11-18T06:10:43;99956.63;;;6.86;90.91
75006;BME280;63553;51.814;4.600;2022-11-18T06:13:33;99941.41;;;6.97;90.52
75006;BME280;63553;51.814;4.600;2022-11-18T06:16:00;99964.25;;;6.81;91.05
75006;BME280;63553;51.814;4.600;2022-11-18T06:18:28;99964.75;;;6.83;91.29
75006;BME280;63553;51.814;4.600;2022-11-18T06:20:57;99968.03;;;6.93;90.99
75006;BME280;63553;51.814;4.600;2022-11-18T06:23:25;99965.22;;;6.76;90.73
75006;BME280;63553;51.814;4.600;2022-11-18T06:25:51;99964.16;;;6.94;91.04
75006;BME280;63553;51.814;4.600;2022-11-18T06:28:17;99980.88;;;6.98;90.27
75006;BME280;63553;51.814;4.600;2022-11-18T06:30:43;99979.66;;;6.73;90.98
75006;BME280;63553;51.814;4.600;2022-11-18T06:33:08;99982.19;;;6.61;91.65
75006;BME280;63553;51.814;4.600;2022-11-18T06:35:33;99990.94;;;6.85;91.38
75006;BME280;63553;51.814;4.600;2022-11-18T06:37:59;99995.00;;;6.88;90.90
75006;BME280;63553;51.814;4.600;2022-11-18T06:40:24;99991.19;;;6.75;91.08
75006;BME280;63553;51.814;4.600;2022-11-18T06:42:49;100000.41;;;6.62;91.87
75006;BME280;63553;51.814;4.600;2022-11-18T06:45:33;100004.22;;;6.83;90.67
75006;BME280;63553;51.814;4.600;2022-11-18T06:47:59;100012.38;;;6.80;91.38
75006;BME280;63553;51.814;4.600;2022-11-18T06:50:28;100007.81;;;6.84;91.18
75006;BME280;63553;51.814;4.600;2022-11-18T06:52:54;100008.00;;;6.87;90.29
75006;BME280;63553;51.814;4.600;2022-11-18T06:55:19;100009.19;;;6.95;90.47
75006;BME280;63553;51.814;4.600;2022-11-18T06:57:45;100016.13;;;7.23;90.48
75006;BME280;63553;51.814;4.600;2022-11-18T07:00:11;100023.72;;;7.09;89.95
75006;BME280;63553;51.814;4.600;2022-11-18T07:02:37;100022.91;;;7.17;89.93
75006;BME280;63553;51.814;4.600;2022-11-18T07:05:03;100031.38;;;7.12;89.83
75006;BME280;63553;51.814;4.600;2022-11-18T07:07:29;100031.03;;;7.13;89.94
75006;BME280;63553;51.814;4.600;2022-11-18T07:09:54;100033.75;;;7.44;89.13
75006;BME280;63553;51.814;4.600;2022-11-18T07:12:20;100038.25;;;7.32;89.19
75006;BME280;63553;51.814;4.600;2022-11-18T07:14:46;100052.50;;;7.56;89.22
75006;BME280;63553;51.814;4.600;2022-11-18T07:17:11;100052.63;;;7.42;88.55
75006;BME280;63553;51.814;4.600;2022-11-18T07:19:38;100057.66;;;7.49;88.88
75006;BME280;63553;51.814;4.600;2022-11-18T07:22:03;100063.31;;;7.35;88.93
75006;BME280;63553;51.814;4.600;2022-11-18T07:24:29;100067.41;;;7.38;89.57
75006;BME280;63553;51.814;4.600;2022-11-18T07:26:55;100067.66;;;7.27;89.67
75006;BME280;63553;51.814;4.600;2022-11-18T07:29:20;100080.75;;;7.36;89.88
75006;BME280;63553;51.814;4.600;2022-11-18T07:31:45;100081.88;;;7.43;89.72
75006;BME280;63553;51.814;4.600;2022-11-18T07:34:11;100084.88;;;7.55;89.53
75006;BME280;63553;51.814;4.600;2022-11-18T07:36:37;100078.59;;;7.80;88.86
75006;BME280;63553;51.814;4.600;2022-11-18T07:39:05;100091.00;;;8.00;87.63
75006;BME280;63553;51.814;4.600;2022-11-18T07:41:30;100090.34;;;8.03;87.36
75006;BME280;63553;51.814;4.600;2022-11-18T07:43:58;100091.84;;;8.18;86.64
75006;BME280;63553;51.814;4.600;2022-11-18T07:46:30;100100.34;;;8.38;86.18
75006;BME280;63553;51.814;4.600;2022-11-18T07:48:57;100087.66;;;8.55;85.95
75006;BME280;63553;51.814;4.600;2022-11-18T07:51:24;100107.81;;;8.55;85.45
75006;BME280;63553;51.814;4.600;2022-11-18T07:53:50;100099.31;;;8.86;85.16
75006;BME280;63553;51.814;4.600;2022-11-18T07:56:16;100104.53;;;8.96;84.33
75006;BME280;63553;51.814;4.600;2022-11-18T07:58:42;100112.16;;;9.16;83.82
75006;BME280;63553;51.814;4.600;2022-11-18T08:03:33;100113.84;;;9.46;82.49
75006;BME280;63553;51.814;4.600;2022-11-18T08:05:59;100123.44;;;9.11;83.87
75006;BME280;63553;51.814;4.600;2022-11-18T08:08:25;100128.59;;;9.21;83.62
75006;BME280;63553;51.814;4.600;2022-11-18T08:10:54;100132.00;;;9.27;83.31
75006;BME280;63553;51.814;4.600;2022-11-18T08:13:19;100134.16;;;9.21;83.03
75006;BME280;63553;51.814;4.600;2022-11-18T08:15:44;100134.47;;;9.28;82.96
75006;BME280;63553;51.814;4.600;2022-11-18T08:18:10;100130.34;;;9.43;82.77
75006;BME280;63553;51.814;4.600;2022-11-18T08:20:35;100139.75;;;9.04;83.22
75006;BME280;63553;51.814;4.600;2022-11-18T08:23:01;100143.97;;;9.10;83.24
75006;BME280;63553;51.814;4.600;2022-11-18T08:25:26;100151.28;;;9.15;82.71
75006;BME280;63553;51.814;4.600;2022-11-18T08:27:51;100152.59;;;9.26;82.62
75006;BME280;63553;51.814;4.600;2022-11-18T08:30:17;100149.28;;;9.41;81.63
75006;BME280;63553;51.814;4.600;2022-11-18T08:32:42;100158.28;;;9.21;82.96
75006;BME280;63553;51.814;4.600;2022-11-18T08:35:08;100160.91;;;9.09;82.88
75006;BME280;63553;51.814;4.600;2022-11-18T08:37:33;100167.78;;;9.20;83.75
75006;BME280;63553;51.814;4.600;2022-11-18T08:39:59;100174.81;;;9.00;83.98
75006;BME280;63553;51.814;4.600;2022-11-18T08:42:24;100170.41;;;9.08;83.25
75006;BME280;63553;51.814;4.600;2022-11-18T08:44:50;100173.19;;;8.99;83.94
75006;BME280;63553;51.814;4.600;2022-11-18T08:47:15;100168.63;;;8.94;85.01
75006;BME280;63553;51.814;4.600;2022-11-18T08:49:41;100171.22;;;8.91;86.17
75006;BME280;63553;51.814;4.600;2022-11-18T08:52:08;100175.47;;;8.97;86.44
75006;BME280;63553;51.814;4.600;2022-11-18T08:54:33;100173.03;;;8.87;86.31
75006;BME280;63553;51.814;4.600;2022-11-18T08:56:59;100171.22;;;8.91;86.31
75006;BME280;63553;51.814;4.600;2022-11-18T08:59:25;100177.91;;;8.99;87.82
75006;BME280;63553;51.814;4.600;2022-11-18T09:01:50;100183.09;;;9.09;88.36
75006;BME280;63553;51.814;4.600;2022-11-18T09:04:16;100177.09;;;8.98;86.42
75006;BME280;63553;51.814;4.600;2022-11-18T09:06:41;100181.66;;;8.94;86.61
75006;BME280;63553;51.814;4.600;2022-11-18T09:09:07;100185.56;;;9.10;87.50
75006;BME280;63553;51.814;4.600;2022-11-18T09:11:33;100189.09;;;9.36;89.57
75006;BME280;63553;51.814;4.600;2022-11-18T09:14:01;100193.41;;;9.08;86.53
75006;BME280;63553;51.814;4.600;2022-11-18T09:16:28;100195.31;;;9.33;90.30
75006;BME280;63553;51.814;4.600;2022-11-18T09:18:55;100197.34;;;8.90;87.24
75006;BME280;63553;51.814;4.600;2022-11-18T09:21:21;100195.03;;;9.09;89.18
75006;BME280;63553;51.814;4.600;2022-11-18T09:23:47;100204.16;;;9.01;87.60
75006;BME280;63553;51.814;4.600;2022-11-18T09:26:15;100205.00;;;8.93;87.79
75006;BME280;63553;51.814;4.600;2022-11-18T09:28:41;100209.88;;;9.13;87.67
75006;BME280;63553;51.814;4.600;2022-11-18T09:31:15;100205.97;;;9.14;87.77
75006;BME280;63553;51.814;4.600;2022-11-18T09:33:41;100203.03;;;9.02;87.96
75006;BME280;63553;51.814;4.600;2022-11-18T09:36:14;100216.38;;;9.09;88.19
75006;BME280;63553;51.814;4.600;2022-11-18T09:38:40;100222.91;;;9.13;88.60
75006;BME280;63553;51.814;4.600;2022-11-18T09:46:30;100228.44;;;9.21;87.85
75006;BME280;63553;51.814;4.600;2022-11-18T09:49:02;100229.75;;;9.24;87.96
75006;BME280;63553;51.814;4.600;2022-11-18T09:51:49;100225.34;;;9.40;86.88
75006;BME280;63553;51.814;4.600;2022-11-18T09:54:24;100228.75;;;9.45;88.64
75006;BME280;63553;51.814;4.600;2022-11-18T09:56:52;100236.75;;;9.38;87.96
75006;BME280;63553;51.814;4.600;2022-11-18T09:59:20;100241.00;;;9.36;86.85
75006;BME280;63553;51.814;4.600;2022-11-18T10:01:48;100245.19;;;9.59;87.84
75006;BME280;63553;51.814;4.600;2022-11-18T10:04:17;100260.72;;;9.52;88.12
75006;BME280;63553;51.814;4.600;2022-11-18T10:06:44;100251.72;;;9.63;88.08
75006;BME280;63553;51.814;4.600;2022-11-18T10:17:45;100267.03;;;9.78;88.22
75006;BME280;63553;51.814;4.600;2022-11-18T10:23:02;100271.75;;;9.77;86.75
75006;BME280;63553;51.814;4.600;2022-11-18T10:25:31;100268.84;;;9.74;86.31
75006;BME280;63553;51.814;4.600;2022-11-18T10:28:10;100271.59;;;9.82;85.87
75006;BME280;63553;51.814;4.600;2022-11-18T10:30:37;100278.41;;;10.02;85.25
75006;BME280;63553;51.814;4.600;2022-11-18T10:33:17;100271.66;;;10.20;86.19
75006;BME280;63553;51.814;4.600;2022-11-18T10:35:44;100277.78;;;9.88;84.88
75006;BME280;63553;51.814;4.600;2022-11-18T10:40:57;100275.16;;;9.91;85.20
75006;BME280;63553;51.814;4.600;2022-11-18T10:46:36;100284.13;;;9.97;85.35
75006;BME280;63553;51.814;4.600;2022-11-18T10:51:39;100282.47;;;10.42;85.93
75006;BME280;63553;51.814;4.600;2022-11-18T10:56:44;100280.78;;;10.29;84.56
75006;BME280;63553;51.814;4.600;2022-11-18T10:59:20;100281.75;;;10.33;84.32
75006;BME280;63553;51.814;4.600;2022-11-18T11:02:02;100275.53;;;10.28;84.56
75006;BME280;63553;51.814;4.600;2022-11-18T11:04:29;100290.75;;;10.30;83.66
75006;BME280;63553;51.814;4.600;2022-11-18T11:06:56;100292.91;;;10.16;84.18
75006;BME280;63553;51.814;4.600;2022-11-18T11:09:26;100288.94;;;10.26;83.74
75006;BME280;63553;51.814;4.600;2022-11-18T11:11:57;100298.78;;;10.23;83.89
75006;BME280;63553;51.814;4.600;2022-11-18T11:17:02;100305.38;;;10.39;83.13
75006;BME280;63553;51.814;4.600;2022-11-18T11:22:13;100307.06;;;10.32;83.51
75006;BME280;63553;51.814;4.600;2022-11-18T11:24:40;100302.88;;;10.55;82.45
75006;BME280;63553;51.814;4.600;2022-11-18T11:48:57;100332.22;;;10.35;82.16
75006;BME280;63553;51.814;4.600;2022-11-18T12:05:05;100339.94;;;10.30;81.86
75006;BME280;63553;51.814;4.600;2022-11-18T12:07:41;100338.16;;;10.17;82.84
75006;BME280;63553;51.814;4.600;2022-11-18T12:10:26;100340.09;;;10.33;83.24
75006;BME280;63553;51.814;4.600;2022-11-18T12:16:06;100341.78;;;10.17;83.93
75006;BME280;63553;51.814;4.600;2022-11-18T12:26:50;100338.81;;;10.22;83.12
75006;BME280;63553;51.814;4.600;2022-11-18T12:31:49;100343.25;;;10.15;84.75
75006;BME280;63553;51.814;4.600;2022-11-18T12:36:50;100343.84;;;10.29;82.64
75006;BME280;63553;51.814;4.600;2022-11-18T12:42:03;100355.66;;;10.09;83.76
75006;BME280;63553;51.814;4.600;2022-11-18T12:44:49;100351.59;;;9.97;83.45
75006;BME280;63553;51.814;4.600;2022-11-18T12:50:12;100360.75;;;10.15;84.18
75006;BME280;63553;51.814;4.600;2022-11-18T12:55:14;100359.41;;;10.21;84.63
75006;BME280;63553;51.814;4.600;2022-11-18T12:57:40;100362.88;;;9.92;84.92
75006;BME280;63553;51.814;4.600;2022-11-18T13:00:38;100355.03;;;9.86;85.48
75006;BME280;63553;51.814;4.600;2022-11-18T13:03:20;100375.75;;;10.05;85.39
75006;BME280;63553;51.814;4.600;2022-11-18T13:05:46;100370.22;;;9.97;85.37
75006;BME280;63553;51.814;4.600;2022-11-18T13:08:12;100368.59;;;9.87;85.25
75006;BME280;63553;51.814;4.600;2022-11-18T13:11:06;100372.53;;;9.78;86.33
75006;BME280;63553;51.814;4.600;2022-11-18T13:13:51;100376.94;;;9.87;86.10
75006;BME280;63553;51.814;4.600;2022-11-18T13:16:39;100381.50;;;9.83;86.50
75006;BME280;63553;51.814;4.600;2022-11-18T13:19:24;100363.88;;;9.88;86.21
75006;BME280;63553;51.814;4.600;2022-11-18T13:21:57;100380.00;;;10.03;86.38
75006;BME280;63553;51.814;4.600;2022-11-18T13:24:43;100386.06;;;9.96;86.38
75006;BME280;63553;51.814;4.600;2022-11-18T13:27:19;100379.50;;;10.01;86.53
75006;BME280;63553;51.814;4.600;2022-11-18T13:29:59;100389.16;;;9.95;86.64
75006;BME280;63553;51.814;4.600;2022-11-18T13:32:27;100385.91;;;9.84;86.34
75006;BME280;63553;51.814;4.600;2022-11-18T13:34:54;100389.19;;;9.78;87.04
75006;BME280;63553;51.814;4.600;2022-11-18T13:37:27;100396.22;;;9.75;87.31
75006;BME280;63553;51.814;4.600;2022-11-18T13:39:52;100385.75;;;9.81;87.44
75006;BME280;63553;51.814;4.600;2022-11-18T13:42:22;100393.78;;;9.74;87.22
75006;BME280;63553;51.814;4.600;2022-11-18T13:44:53;100396.03;;;9.80;87.87
75006;BME280;63553;51.814;4.600;2022-11-18T13:50:21;100397.19;;;9.79;87.11
75006;BME280;63553;51.814;4.600;2022-11-18T13:53:22;100404.22;;;9.85;87.32
75006;BME280;63553;51.814;4.600;2022-11-18T13:55:53;100406.66;;;9.78;86.94
75006;BME280;63553;51.814;4.600;2022-11-18T14:03:59;100404.06;;;9.82;87.77
75006;BME280;63553;51.814;4.600;2022-11-18T14:06:33;100399.63;;;9.81;87.24
75006;BME280;63553;51.814;4.600;2022-11-18T14:09:26;100407.31;;;9.67;88.03
75006;BME280;63553;51.814;4.600;2022-11-18T14:12:04;100414.50;;;9.59;88.15
75006;BME280;63553;51.814;4.600;2022-11-18T14:14:33;100408.78;;;9.64;88.66
75006;BME280;63553;51.814;4.600;2022-11-18T14:19:40;100415.66;;;9.49;88.91
75006;BME280;63553;51.814;4.600;2022-11-18T14:22:13;100416.47;;;9.84;88.92
75006;BME280;63553;51.814;4.600;2022-11-18T14:24:40;100421.84;;;9.72;89.01
75006;BME280;63553;51.814;4.600;2022-11-18T14:27:44;100420.22;;;9.63;89.03
75006;BME280;63553;51.814;4.600;2022-11-18T14:35:40;100425.94;;;9.49;89.26
75006;BME280;63553;51.814;4.600;2022-11-18T14:38:12;100429.34;;;9.63;89.44
75006;BME280;63553;51.814;4.600;2022-11-18T14:40:38;100438.03;;;9.62;89.72
75006;BME280;63553;51.814;4.600;2022-11-18T14:43:03;100437.84;;;9.67;89.78
75006;BME280;63553;51.814;4.600;2022-11-18T14:45:29;100436.03;;;9.45;90.74
75006;BME280;63553;51.814;4.600;2022-11-18T14:47:54;100444.53;;;9.57;91.65
75006;BME280;63553;51.814;4.600;2022-11-18T14:50:19;100444.22;;;9.67;91.64
75006;BME280;63553;51.814;4.600;2022-11-18T14:52:45;100446.34;;;9.70;90.52
75006;BME280;63553;51.814;4.600;2022-11-18T14:55:10;100448.47;;;9.65;90.23
75006;BME280;63553;51.814;4.600;2022-11-18T14:57:35;100448.78;;;9.72;91.03
75006;BME280;63553;51.814;4.600;2022-11-18T15:00:01;100452.22;;;9.77;90.46
75006;BME280;63553;51.814;4.600;2022-11-18T15:02:27;100451.25;;;9.82;90.46
75006;BME280;63553;51.814;4.600;2022-11-18T15:04:52;100463.31;;;9.77;90.15
75006;BME280;63553;51.814;4.600;2022-11-18T15:07:18;100457.78;;;9.69;89.49
75006;BME280;63553;51.814;4.600;2022-11-18T15:09:43;100465.13;;;9.73;89.59
75006;BME280;63553;51.814;4.600;2022-11-18T15:12:10;100468.22;;;9.80;89.79
75006;BME280;63553;51.814;4.600;2022-11-18T15:14:35;100470.34;;;9.83;89.70
75006;BME280;63553;51.814;4.600;2022-11-18T15:17:02;100471.16;;;9.75;89.96
75006;BME280;63553;51.814;4.600;2022-11-18T15:19:27;100469.03;;;9.72;90.20
75006;BME280;63553;51.814;4.600;2022-11-18T15:21:52;100471.34;;;9.70;89.58
75006;BME280;63553;51.814;4.600;2022-11-18T15:24:18;100469.22;;;9.76;90.01